Time;durP1;ratioP1;P1;durP2;ratioP2;P2;SDS_P1;SDS_P2;PMS_P1;PMS_P2;Temp;Humidity;BMP_temperature;BMP_pressure;BME280_temperature;BME280_humidity;BME280_pressure;Samples;Min_cycle;Max_cycle;Signal;HPM_P1;HPM_P2
2022/11/17 00:02:03;;;;;;;6.65;4.57;;;5.90;99.90;;;;;;4999435;28;20412;-40
2022/11/17 00:04:28;;;;;;;5.63;4.18;;;5.90;99.90;;;;;;4998044;28;20026;-40
2022/11/17 00:06:54;;;;;;;5.88;4.18;;;5.90;99.90;;;;;;5006285;28;20398;-41
2022/11/17 00:09:20;;;;;;;6.35;4.72;;;6.00;99.90;;;;;;5000559;28;20010;-40
2022/11/17 00:14:38;;;;;;;6.95;4.70;;;6.00;99.90;;;;;;4999489;28;20525;-41
2022/11/17 00:17:06;;;;;;;7.85;5.05;;;6.00;99.90;;;;;;5008296;28;20498;-41
2022/11/17 00:22:16;;;;;;;5.85;4.55;;;6.00;99.90;;;;;;5004696;28;20126;-41
2022/11/17 00:24:42;;;;;;;7.53;5.03;;;6.00;99.90;;;;;;5005367;28;20727;-41
2022/11/17 00:27:08;;;;;;;9.02;4.88;;;5.90;99.90;;;;;;5005945;28;20063;-40
2022/11/17 00:29:33;;;;;;;8.20;6.10;;;5.90;99.90;;;;;;5004688;28;20103;-41
2022/11/17 00:34:43;;;;;;;7.72;5.53;;;6.00;99.90;;;;;;5006182;28;20037;-40
2022/11/17 00:37:10;;;;;;;8.50;5.70;;;6.00;99.90;;;;;;5005927;28;20038;-40
2022/11/17 00:39:36;;;;;;;8.48;5.65;;;6.00;99.90;;;;;;5005778;28;20021;-41
2022/11/17 00:42:02;;;;;;;8.60;5.82;;;6.00;99.90;;;;;;5005662;28;20113;-40
2022/11/17 00:44:28;;;;;;;8.43;5.53;;;5.90;99.90;;;;;;5001563;28;20037;-41
2022/11/17 00:46:54;;;;;;;9.65;5.88;;;6.00;99.90;;;;;;4990686;28;20065;-41
2022/11/17 00:49:23;;;;;;;8.30;6.22;;;6.00;99.90;;;;;;5004374;28;20447;-40
2022/11/17 00:51:53;;;;;;;11.85;6.47;;;6.00;99.90;;;;;;4996585;28;20049;-40
2022/11/17 00:54:19;;;;;;;9.05;6.55;;;6.00;99.90;;;;;;4996667;28;20463;-40
2022/11/17 00:56:46;;;;;;;9.05;6.22;;;6.00;99.90;;;;;;5005672;28;20060;-41
2022/11/17 00:59:12;;;;;;;11.00;6.50;;;6.00;99.90;;;;;;4988181;28;20048;-41
2022/11/17 01:01:38;;;;;;;7.97;5.93;;;6.00;99.90;;;;;;5005087;28;20044;-40
2022/11/17 01:04:05;;;;;;;10.20;6.68;;;6.00;99.90;;;;;;5004527;28;20528;-41
2022/11/17 01:06:36;;;;;;;12.77;7.07;;;6.00;99.90;;;;;;5009017;28;20030;-41
2022/11/17 01:09:09;;;;;;;9.82;6.80;;;6.00;99.90;;;;;;4993739;28;20106;-41
2022/11/17 01:11:34;;;;;;;10.20;7.40;;;6.00;99.90;;;;;;4999330;28;20021;-41
2022/11/17 01:14:00;;;;;;;10.65;6.90;;;6.00;99.90;;;;;;5009088;28;20018;-41
2022/11/17 01:16:27;;;;;;;10.63;7.07;;;6.00;99.90;;;;;;4995510;28;20111;-41
2022/11/17 01:18:53;;;;;;;10.00;7.28;;;6.00;99.90;;;;;;5001127;28;20045;-41
2022/11/17 01:21:24;;;;;;;10.73;7.63;;;6.00;99.90;;;;;;4997717;28;20033;-41
2022/11/17 01:23:53;;;;;;;12.90;8.35;;;6.00;99.90;;;;;;5004756;28;20073;-42
2022/11/17 01:26:21;;;;;;;10.45;7.70;;;6.00;99.90;;;;;;5008801;28;20107;-41
2022/11/17 01:28:48;;;;;;;13.75;7.95;;;6.00;99.90;;;;;;5008905;28;20022;-41
2022/11/17 01:31:17;;;;;;;12.15;8.05;;;6.00;99.90;;;;;;5006620;28;20519;-43
2022/11/17 01:33:43;;;;;;;14.43;9.23;;;6.00;99.90;;;;;;5007314;28;20030;-41
2022/11/17 01:36:15;;;;;;;14.88;8.88;;;6.00;99.90;;;;;;5008694;28;20038;-41
2022/11/17 01:38:42;;;;;;;14.55;8.68;;;6.00;99.90;;;;;;5008668;28;20026;-41
2022/11/17 01:41:20;;;;;;;13.52;8.93;;;6.00;99.90;;;;;;5007223;28;20075;-45
2022/11/17 01:43:51;;;;;;;12.98;8.60;;;6.00;99.90;;;;;;5008807;28;20026;-40
2022/11/17 01:46:32;;;;;;;13.95;9.40;;;6.00;99.90;;;;;;5008096;28;20034;-41
2022/11/17 01:49:06;;;;;;;13.98;8.98;;;6.00;99.90;;;;;;5008304;28;20022;-41
2022/11/17 01:51:37;;;;;;;16.48;9.95;;;6.00;99.90;;;;;;4991592;28;20015;-41
2022/11/17 01:54:03;;;;;;;14.55;10.00;;;6.00;99.90;;;;;;5001542;28;20026;-41
2022/11/17 01:56:37;;;;;;;15.18;10.38;;;5.90;99.90;;;;;;5006871;28;20040;-41
2022/11/17 01:59:15;;;;;;;13.02;9.10;;;6.00;99.90;;;;;;5008303;28;20115;-41
2022/11/17 02:01:54;;;;;;;18.33;10.38;;;6.00;99.90;;;;;;5007514;28;20113;-41
2022/11/17 02:04:41;;;;;;;16.42;10.32;;;5.90;99.90;;;;;;5008166;28;20033;-42
2022/11/17 02:07:22;;;;;;;16.77;9.05;;;6.00;99.90;;;;;;5007885;28;20022;-41
2022/11/17 02:09:49;;;;;;;16.48;10.10;;;5.90;99.90;;;;;;4993451;28;20060;-41
2022/11/17 02:12:16;;;;;;;13.60;9.75;;;6.00;99.90;;;;;;4998082;28;20056;-41
2022/11/17 02:14:41;;;;;;;17.52;10.20;;;6.00;99.90;;;;;;5004643;28;20044;-41
2022/11/17 02:17:08;;;;;;;14.13;9.30;;;5.90;99.90;;;;;;5009733;28;20480;-41
2022/11/17 02:19:40;;;;;;;16.23;10.15;;;5.90;99.90;;;;;;5006506;28;20066;-41
2022/11/17 02:22:14;;;;;;;16.63;10.63;;;5.90;99.90;;;;;;5007334;28;20065;-41
2022/11/17 02:24:58;;;;;;;17.63;10.05;;;5.90;99.90;;;;;;4998662;28;20026;-41
2022/11/17 02:27:42;;;;;;;17.05;10.57;;;5.90;99.90;;;;;;4998666;28;20030;-40
2022/11/17 02:30:17;;;;;;;17.80;11.88;;;5.90;99.90;;;;;;5007568;28;20061;-40
2022/11/17 02:33:04;;;;;;;17.52;11.32;;;5.90;99.90;;;;;;5007184;28;20058;-40
2022/11/17 02:35:50;;;;;;;20.08;11.73;;;5.90;99.90;;;;;;5007478;28;20041;-40
2022/11/17 02:38:25;;;;;;;21.35;11.80;;;5.90;99.90;;;;;;5007700;28;20387;-40
2022/11/17 02:41:12;;;;;;;17.15;10.85;;;5.80;99.90;;;;;;5007541;28;20034;-40
2022/11/17 02:44:07;;;;;;;19.27;12.48;;;5.90;99.90;;;;;;5007575;28;20030;-41
2022/11/17 02:46:44;;;;;;;17.27;10.98;;;5.80;99.90;;;;;;5007484;28;20026;-41
2022/11/17 02:49:31;;;;;;;18.25;11.93;;;5.80;99.90;;;;;;5006522;28;20030;-41
2022/11/17 02:51:58;;;;;;;17.85;10.93;;;5.80;99.90;;;;;;5006919;28;20023;-41
2022/11/17 02:54:28;;;;;;;15.82;10.52;;;5.70;99.90;;;;;;4999276;28;20021;-41
2022/11/17 02:56:53;;;;;;;17.73;10.68;;;5.70;99.90;;;;;;4999192;28;20474;-41
2022/11/17 02:59:26;;;;;;;16.88;11.27;;;5.70;99.90;;;;;;5007187;28;20082;-41
2022/11/17 03:02:20;;;;;;;18.92;10.20;;;5.70;99.90;;;;;;5005253;28;20030;-41
2022/11/17 03:04:48;;;;;;;16.95;10.15;;;5.70;99.90;;;;;;5005879;28;20123;-41
2022/11/17 03:07:36;;;;;;;18.88;10.93;;;5.70;99.90;;;;;;5006976;28;20021;-41
2022/11/17 03:10:13;;;;;;;17.20;10.57;;;5.70;99.90;;;;;;4998785;28;20018;-41
2022/11/17 03:12:47;;;;;;;17.63;11.95;;;5.70;99.90;;;;;;5001409;28;20033;-41
2022/11/17 03:15:22;;;;;;;19.75;12.25;;;5.70;99.90;;;;;;4999328;28;20022;-42
2022/11/17 03:18:08;;;;;;;18.20;11.88;;;5.70;99.90;;;;;;5002487;28;20073;-41
2022/11/17 03:20:49;;;;;;;16.58;11.27;;;5.60;99.90;;;;;;5005627;28;20034;-41
2022/11/17 03:23:21;;;;;;;20.60;12.10;;;5.60;99.90;;;;;;5006486;28;20022;-41
2022/11/17 03:25:50;;;;;;;24.85;12.10;;;5.70;99.90;;;;;;5006631;28;20072;-41
2022/11/17 03:28:20;;;;;;;17.40;10.83;;;5.60;99.90;;;;;;5007043;28;20039;-40
2022/11/17 03:30:47;;;;;;;19.30;12.00;;;5.60;99.90;;;;;;4995583;28;20023;-40
2022/11/17 03:33:17;;;;;;;21.23;12.70;;;5.60;99.90;;;;;;4979445;28;20037;-40
2022/11/17 03:35:49;;;;;;;18.88;11.82;;;5.60;99.90;;;;;;4967658;28;20474;-40
2022/11/17 03:38:17;;;;;;;20.92;12.48;;;5.60;99.90;;;;;;4967722;28;20041;-40
2022/11/17 03:40:46;;;;;;;21.20;13.88;;;5.50;99.90;;;;;;4967422;28;20407;-40
2022/11/17 03:43:15;;;;;;;20.80;13.80;;;5.50;99.90;;;;;;4967148;28;20035;-40
2022/11/17 03:45:46;;;;;;;18.75;12.45;;;5.60;99.90;;;;;;4986592;28;20061;-41
2022/11/17 03:48:29;;;;;;;21.10;13.13;;;5.60;99.90;;;;;;4987794;28;20026;-40
2022/11/17 03:50:57;;;;;;;17.67;10.88;;;5.60;99.90;;;;;;4985361;28;20392;-40
2022/11/17 03:53:23;;;;;;;19.58;12.25;;;5.50;99.90;;;;;;4985877;28;20026;-40
2022/11/17 03:55:57;;;;;;;18.75;12.27;;;5.50;99.90;;;;;;4980376;28;20015;-40
2022/11/17 03:58:29;;;;;;;23.90;13.75;;;5.50;99.90;;;;;;4978115;28;20046;-40
2022/11/17 04:00:57;;;;;;;23.23;13.27;;;5.50;99.90;;;;;;4979955;28;20442;-40
2022/11/17 04:03:22;;;;;;;23.00;13.35;;;5.50;99.90;;;;;;4974341;28;20026;-40
2022/11/17 04:05:48;;;;;;;25.50;13.15;;;5.50;99.90;;;;;;4975306;28;20115;-40
2022/11/17 04:08:13;;;;;;;20.65;12.85;;;5.50;99.90;;;;;;4976925;28;20135;-40
2022/11/17 04:16:07;;;;;;;27.25;15.13;;;5.50;99.90;;;;;;4974926;28;20037;-40
2022/11/17 04:18:33;;;;;;;26.98;15.85;;;5.50;99.90;;;;;;4981209;28;20486;-40
2022/11/17 04:20:58;;;;;;;27.30;16.65;;;5.50;99.90;;;;;;4975584;28;20030;-40
2022/11/17 04:23:24;;;;;;;26.63;15.40;;;5.50;99.90;;;;;;4974863;28;20030;-40
2022/11/17 04:28:43;;;;;;;27.15;15.80;;;5.50;99.90;;;;;;4978008;28;20156;-40
2022/11/17 04:31:12;;;;;;;24.23;14.57;;;5.50;99.90;;;;;;4974523;28;20395;-40
2022/11/17 04:33:40;;;;;;;24.17;15.40;;;5.50;99.90;;;;;;4975445;28;20106;-41
2022/11/17 04:36:07;;;;;;;29.52;16.77;;;5.50;99.90;;;;;;4975297;28;20165;-41
2022/11/17 04:38:33;;;;;;;28.80;17.05;;;5.40;99.90;;;;;;4972542;28;20083;-41
2022/11/17 04:43:49;;;;;;;27.25;16.02;;;5.40;99.90;;;;;;4976696;28;20526;-39
2022/11/17 04:46:16;;;;;;;24.48;14.32;;;5.40;99.90;;;;;;4975919;28;20033;-39
2022/11/17 04:48:42;;;;;;;26.80;14.80;;;5.30;99.90;;;;;;4979853;28;20076;-40
2022/11/17 04:51:08;;;;;;;24.10;14.38;;;5.40;99.90;;;;;;4976339;28;20101;-40
2022/11/17 04:53:34;;;;;;;25.67;14.70;;;5.40;99.90;;;;;;4974103;28;20103;-40
2022/11/17 04:56:01;;;;;;;26.33;16.00;;;5.40;99.90;;;;;;4975719;28;20278;-40
2022/11/17 04:58:27;;;;;;;27.02;16.00;;;5.30;99.90;;;;;;4964880;28;20484;-40
2022/11/17 05:00:53;;;;;;;24.75;15.63;;;5.30;99.90;;;;;;4966091;28;20058;-40
2022/11/17 05:03:19;;;;;;;27.55;15.82;;;5.40;99.90;;;;;;4963738;28;20058;-40
2022/11/17 05:05:46;;;;;;;27.13;16.33;;;5.40;99.90;;;;;;4966402;28;20023;-40
2022/11/17 05:08:12;;;;;;;29.80;18.02;;;5.40;99.90;;;;;;4968191;28;20026;-39
2022/11/17 05:13:39;;;;;;;29.92;16.90;;;5.40;99.90;;;;;;5035118;28;20017;-40
2022/11/17 05:19:12;;;;;;;28.95;17.40;;;5.40;99.90;;;;;;4974327;28;20061;-40
2022/11/17 05:21:38;;;;;;;32.85;19.17;;;5.30;99.90;;;;;;4973772;28;20038;-40
2022/11/17 05:24:05;;;;;;;34.75;19.02;;;5.40;99.90;;;;;;4974735;28;20050;-39
2022/11/17 05:26:33;;;;;;;32.45;18.92;;;5.30;99.90;;;;;;4977923;28;20107;-39
2022/11/17 05:29:01;;;;;;;30.38;17.13;;;5.30;99.90;;;;;;4972933;28;20496;-39
2022/11/17 05:31:28;;;;;;;31.70;18.35;;;5.30;99.90;;;;;;4975278;28;20639;-41
2022/11/17 05:33:54;;;;;;;29.92;17.60;;;5.20;99.90;;;;;;4984898;28;20022;-40
2022/11/17 05:36:21;;;;;;;30.85;18.30;;;5.20;99.90;;;;;;4984844;28;20042;-40
2022/11/17 05:38:47;;;;;;;36.80;20.92;;;5.20;99.90;;;;;;4985059;28;20060;-40
2022/11/17 05:41:14;;;;;;;38.28;20.88;;;5.20;99.90;;;;;;4984985;28;20030;-41
2022/11/17 05:43:39;;;;;;;38.72;21.90;;;5.20;99.90;;;;;;4984126;28;20445;-40
2022/11/17 05:46:05;;;;;;;38.38;23.42;;;5.20;99.90;;;;;;4984424;28;20018;-40
2022/11/17 05:48:32;;;;;;;38.53;21.95;;;5.20;99.90;;;;;;4985919;28;20053;-40
2022/11/17 05:50:58;;;;;;;35.63;21.30;;;5.10;99.90;;;;;;4977459;28;20646;-40
2022/11/17 05:53:23;;;;;;;34.28;19.88;;;5.00;99.90;;;;;;4976891;28;20105;-40
2022/11/17 05:55:49;;;;;;;34.35;19.65;;;5.00;99.90;;;;;;4985320;28;20050;-40
2022/11/17 05:58:24;;;;;;;36.42;20.60;;;5.10;99.90;;;;;;4986257;28;20036;-40
2022/11/17 06:00:51;;;;;;;33.00;20.10;;;5.00;99.90;;;;;;4988887;28;20046;-40
2022/11/17 06:03:22;;;;;;;35.28;20.17;;;5.10;99.90;;;;;;4988630;28;20036;-40
2022/11/17 06:05:47;;;;;;;33.42;19.38;;;5.00;99.90;;;;;;4985407;28;20105;-40
2022/11/17 06:08:13;;;;;;;31.58;19.88;;;5.10;99.90;;;;;;4986894;28;20491;-40
2022/11/17 06:10:39;;;;;;;37.42;22.17;;;5.00;99.90;;;;;;4985504;28;20026;-40
2022/11/17 06:13:04;;;;;;;37.72;21.42;;;5.00;99.90;;;;;;4999927;28;20018;-41
2022/11/17 06:15:30;;;;;;;38.78;21.50;;;5.10;99.90;;;;;;5005553;28;20122;-40
2022/11/17 06:18:00;;;;;;;34.85;21.23;;;5.00;99.90;;;;;;4984794;28;20027;-40
2022/11/17 06:20:29;;;;;;;32.55;20.42;;;5.00;99.90;;;;;;4971972;28;20027;-41
2022/11/17 06:23:01;;;;;;;35.22;19.80;;;5.10;99.90;;;;;;4969828;28;20121;-40
2022/11/17 06:25:27;;;;;;;32.10;19.27;;;5.10;99.90;;;;;;4980385;28;20444;-40
2022/11/17 06:27:54;;;;;;;36.55;22.38;;;5.10;99.90;;;;;;4984945;28;20386;-40
2022/11/17 06:30:20;;;;;;;33.80;21.63;;;5.00;99.90;;;;;;4979245;28;20027;-40
2022/11/17 06:32:46;;;;;;;32.13;20.75;;;5.00;99.90;;;;;;4977610;28;20030;-40
2022/11/17 06:35:13;;;;;;;30.73;18.85;;;5.00;99.90;;;;;;4977357;28;20039;-41
2022/11/17 06:37:38;;;;;;;47.10;20.67;;;4.90;99.90;;;;;;4978634;28;20444;-40
2022/11/17 06:40:04;;;;;;;34.50;20.20;;;4.90;99.90;;;;;;4978157;28;20297;-41
2022/11/17 06:45:14;;;;;;;39.53;21.80;;;4.80;99.90;;;;;;4983500;28;20102;-40
2022/11/17 06:47:39;;;;;;;37.22;20.80;;;4.80;99.90;;;;;;4984373;28;20450;-40
2022/11/17 06:50:05;;;;;;;38.50;21.90;;;4.80;99.90;;;;;;4971346;28;20581;-40
2022/11/17 06:52:31;;;;;;;31.75;20.38;;;4.90;99.90;;;;;;4966810;28;20487;-40
2022/11/17 06:54:56;;;;;;;36.53;21.50;;;5.00;99.90;;;;;;4969026;28;20035;-40
2022/11/17 06:57:22;;;;;;;32.75;20.08;;;5.00;99.90;;;;;;4988444;28;20111;-40
2022/11/17 06:59:47;;;;;;;34.10;20.38;;;5.00;99.90;;;;;;4988164;28;20053;-40
2022/11/17 07:02:13;;;;;;;34.10;20.45;;;4.90;99.90;;;;;;5055839;28;20028;-40
2022/11/17 07:04:38;;;;;;;37.42;20.83;;;5.00;99.90;;;;;;5055255;28;20041;-41
2022/11/17 07:07:04;;;;;;;33.63;19.95;;;5.00;99.90;;;;;;4978003;28;20023;-40
2022/11/17 07:09:29;;;;;;;38.03;21.95;;;4.90;99.90;;;;;;4975607;28;21125;-40
2022/11/17 07:11:55;;;;;;;34.28;19.80;;;4.90;99.90;;;;;;4979800;28;20049;-40
2022/11/17 07:14:20;;;;;;;36.63;21.27;;;4.90;99.90;;;;;;4995860;28;20027;-39
2022/11/17 07:16:46;;;;;;;34.05;20.70;;;4.80;99.90;;;;;;4986837;28;20075;-39
2022/11/17 07:19:12;;;;;;;39.70;22.05;;;4.80;99.90;;;;;;4986903;28;20038;-40
2022/11/17 07:21:37;;;;;;;34.47;21.10;;;4.80;99.90;;;;;;4998822;28;20020;-40
2022/11/17 07:24:03;;;;;;;33.08;19.98;;;4.90;99.90;;;;;;4978636;28;20232;-40
2022/11/17 07:26:28;;;;;;;38.50;21.08;;;4.90;99.90;;;;;;4989553;28;20109;-40
2022/11/17 07:28:54;;;;;;;34.95;21.27;;;5.00;99.90;;;;;;5084126;28;20027;-40
2022/11/17 07:31:19;;;;;;;37.28;21.02;;;5.00;99.90;;;;;;5036652;28;20022;-40
2022/11/17 07:33:45;;;;;;;33.97;20.95;;;5.00;99.90;;;;;;4983770;28;20018;-40
2022/11/17 07:36:13;;;;;;;39.50;22.33;;;5.00;99.90;;;;;;4983658;28;20513;-41
2022/11/17 07:38:40;;;;;;;34.63;20.73;;;5.00;99.90;;;;;;4983726;28;20023;-41
2022/11/17 07:41:06;;;;;;;35.45;20.65;;;5.00;99.90;;;;;;4985161;28;20022;-42
2022/11/17 07:43:33;;;;;;;37.28;21.00;;;5.00;99.90;;;;;;4994601;28;20041;-41
2022/11/17 07:46:06;;;;;;;34.47;21.42;;;4.90;99.90;;;;;;5001774;28;20081;-41
2022/11/17 07:48:32;;;;;;;35.53;20.42;;;4.90;99.90;;;;;;5002842;28;20036;-40
2022/11/17 07:50:59;;;;;;;34.33;19.65;;;4.90;99.90;;;;;;5003030;28;20030;-41
2022/11/17 07:53:24;;;;;;;34.75;20.23;;;4.90;99.90;;;;;;5002597;28;20026;-41
2022/11/17 07:55:50;;;;;;;37.80;20.67;;;4.90;99.90;;;;;;5002760;28;20036;-41
2022/11/17 07:58:16;;;;;;;36.28;20.63;;;4.90;99.90;;;;;;5003079;28;20075;-38
2022/11/17 08:00:41;;;;;;;55.60;33.63;;;4.90;99.90;;;;;;5001665;28;20220;-37
2022/11/17 08:03:08;;;;;;;85.97;50.38;;;4.90;99.90;;;;;;5002483;28;20127;-39
2022/11/17 08:05:35;;;;;;;37.90;21.17;;;5.00;99.90;;;;;;5003105;28;20280;-40
2022/11/17 08:08:00;;;;;;;36.70;20.80;;;5.00;99.90;;;;;;4998674;28;20437;-40
2022/11/17 08:10:29;;;;;;;33.97;20.10;;;5.00;99.90;;;;;;4971240;28;20398;-40
2022/11/17 08:12:56;;;;;;;32.75;19.77;;;5.10;99.90;;;;;;4991569;28;20024;-40
2022/11/17 08:15:21;;;;;;;32.88;20.67;;;5.10;99.90;;;;;;5001805;28;20455;-39
2022/11/17 08:17:52;;;;;;;32.88;20.27;;;5.00;99.90;;;;;;4989364;28;20474;-39
2022/11/17 08:20:17;;;;;;;35.50;20.10;;;5.00;99.90;;;;;;5002202;28;20203;-39
2022/11/17 08:22:43;;;;;;;34.97;20.65;;;5.00;99.90;;;;;;5002135;28;20082;-39
2022/11/17 08:25:08;;;;;;;36.03;20.15;;;5.00;99.90;;;;;;4968129;28;20603;-40
2022/11/17 08:27:34;;;;;;;37.85;20.80;;;5.00;99.90;;;;;;4970820;28;20057;-40
2022/11/17 08:30:00;;;;;;;37.17;19.75;;;5.00;99.90;;;;;;4985035;28;20018;-40
2022/11/17 08:32:26;;;;;;;33.97;19.50;;;5.00;99.90;;;;;;4993630;28;20056;-40
2022/11/17 08:34:51;;;;;;;33.38;19.45;;;5.00;99.90;;;;;;5002334;28;20017;-39
2022/11/17 08:37:17;;;;;;;36.78;18.77;;;5.00;99.90;;;;;;5001699;28;20038;-39
2022/11/17 08:39:42;;;;;;;35.53;20.83;;;4.90;99.90;;;;;;4993285;28;20055;-40
2022/11/17 08:42:08;;;;;;;36.40;20.77;;;4.90;99.90;;;;;;4989926;28;20430;-39
2022/11/17 08:44:33;;;;;;;39.00;21.60;;;4.90;99.90;;;;;;5002313;28;20022;-40
2022/11/17 08:46:59;;;;;;;38.65;22.00;;;4.90;99.90;;;;;;4997356;28;20026;-40
2022/11/17 08:49:24;;;;;;;39.78;20.85;;;4.90;99.90;;;;;;4994608;28;20140;-39
2022/11/17 08:51:50;;;;;;;36.03;20.05;;;4.90;99.90;;;;;;4975716;28;20015;-40
2022/11/17 08:54:15;;;;;;;38.15;22.10;;;4.80;99.90;;;;;;4970621;28;20026;-40
2022/11/17 08:56:40;;;;;;;40.95;20.60;;;4.80;99.90;;;;;;4973841;28;20117;-40
2022/11/17 08:59:08;;;;;;;37.90;21.13;;;4.80;99.90;;;;;;4972441;28;20038;-40
2022/11/17 09:01:33;;;;;;;35.58;20.83;;;4.80;99.90;;;;;;4970492;28;20030;-40
2022/11/17 09:03:59;;;;;;;33.42;19.38;;;4.80;99.90;;;;;;4982359;28;20088;-39
2022/11/17 09:06:24;;;;;;;79.30;45.88;;;4.80;99.90;;;;;;4982765;28;20492;-39
2022/11/17 09:08:53;;;;;;;77.22;44.83;;;4.80;99.90;;;;;;4982531;28;20022;-40
2022/11/17 09:11:19;;;;;;;38.92;21.77;;;4.80;99.90;;;;;;4985312;28;20031;-41
2022/11/17 09:13:45;;;;;;;36.80;20.15;;;4.80;99.90;;;;;;4989040;28;20025;-40
2022/11/17 09:16:11;;;;;;;39.67;22.15;;;4.80;99.90;;;;;;4982937;28;20109;-39
2022/11/17 09:18:38;;;;;;;37.60;19.95;;;4.80;99.90;;;;;;4983753;28;20109;-40
2022/11/17 09:21:06;;;;;;;40.88;21.83;;;4.80;99.90;;;;;;4997959;28;20077;-39
2022/11/17 09:23:32;;;;;;;41.42;22.38;;;4.80;99.90;;;;;;4992223;28;20027;-40
2022/11/17 09:26:02;;;;;;;40.38;20.67;;;4.70;99.90;;;;;;4972489;28;20034;-39
2022/11/17 09:28:27;;;;;;;36.25;19.67;;;4.80;99.90;;;;;;4978039;28;20022;-40
2022/11/17 09:30:53;;;;;;;35.60;18.10;;;4.80;99.90;;;;;;4985451;28;20053;-40
2022/11/17 09:33:18;;;;;;;33.03;18.65;;;4.70;99.90;;;;;;4985024;28;20034;-39
2022/11/17 09:35:44;;;;;;;37.17;19.27;;;4.70;99.90;;;;;;4985675;28;20034;-40
2022/11/17 09:38:10;;;;;;;37.13;19.30;;;4.70;99.90;;;;;;4983167;28;20079;-40
2022/11/17 09:40:39;;;;;;;39.40;18.17;;;4.80;99.90;;;;;;4985317;28;20499;-40
2022/11/17 09:43:25;;;;;;;34.92;19.08;;;4.80;99.90;;;;;;4985172;28;20387;-40
2022/11/17 09:45:53;;;;;;;33.97;18.63;;;4.80;99.90;;;;;;4985730;28;20022;-40
2022/11/17 09:48:50;;;;;;;34.05;18.75;;;4.80;99.90;;;;;;4985623;28;20261;-39
2022/11/17 09:51:19;;;;;;;37.17;18.85;;;4.80;99.90;;;;;;4982546;28;20039;-40
2022/11/17 09:53:54;;;;;;;36.53;21.27;;;4.80;99.90;;;;;;4992350;28;20779;-43
2022/11/17 09:56:20;;;;;;;31.73;18.15;;;4.80;99.90;;;;;;4997625;28;20023;-40
2022/11/17 09:58:53;;;;;;;34.00;18.27;;;4.80;99.90;;;;;;4969439;28;20027;-39
2022/11/17 10:01:21;;;;;;;37.63;18.88;;;4.80;99.90;;;;;;5007484;28;20677;-39
2022/11/17 10:03:49;;;;;;;32.67;18.70;;;4.90;99.90;;;;;;4985462;28;20535;-43
2022/11/17 10:06:23;;;;;;;36.58;20.23;;;4.90;99.90;;;;;;4965729;28;20041;-39
2022/11/17 10:09:04;;;;;;;32.50;18.67;;;4.90;99.90;;;;;;4987207;28;20045;-39
2022/11/17 10:11:34;;;;;;;;;;;4.90;99.90;;;;;;4994350;28;20105;-39
2022/11/17 10:14:14;;;;;;;33.78;17.02;;;4.80;99.90;;;;;;5003541;28;19916;-39
2022/11/17 10:16:43;;;;;;;33.93;17.10;;;4.80;99.90;;;;;;5008072;28;20700;-39
2022/11/17 10:19:25;;;;;;;34.83;17.52;;;4.80;99.90;;;;;;5007641;28;20060;-39
2022/11/17 10:22:11;;;;;;;116.10;64.72;;;4.90;99.90;;;;;;5007207;28;20716;-39
2022/11/17 10:24:42;;;;;;;120.78;62.22;;;4.80;99.90;;;;;;5007668;28;20022;-39
2022/11/17 10:27:18;;;;;;;40.78;20.63;;;4.90;99.90;;;;;;5007563;28;20026;-39
2022/11/17 10:29:59;;;;;;;30.17;17.08;;;5.00;99.90;;;;;;5007250;28;20541;-39
2022/11/17 10:32:26;;;;;;;31.60;16.77;;;5.00;99.90;;;;;;4982775;28;20111;-39
2022/11/17 10:34:53;;;;;;;34.25;18.38;;;5.00;99.90;;;;;;5086550;28;20107;-39
2022/11/17 10:37:26;;;;;;;32.72;17.80;;;5.00;99.90;;;;;;5082090;28;20027;-39
2022/11/17 10:40:08;;;;;;;31.83;16.58;;;5.00;99.90;;;;;;5048324;28;20080;-39
2022/11/17 10:42:33;;;;;;;32.60;17.67;;;5.00;99.90;;;;;;4981162;28;20120;-40
2022/11/17 10:45:00;;;;;;;33.83;17.67;;;5.10;99.90;;;;;;5001639;28;20506;-39
2022/11/17 10:47:38;;;;;;;32.30;16.60;;;5.10;99.90;;;;;;4981017;28;20034;-39
2022/11/17 10:50:23;;;;;;;29.50;16.73;;;5.10;99.90;;;;;;4968417;28;20023;-39
2022/11/17 10:52:51;;;;;;;30.15;15.68;;;5.10;99.90;;;;;;4981614;28;20030;-39
2022/11/17 10:55:24;;;;;;;27.30;15.73;;;5.00;99.90;;;;;;4967639;28;20383;-40
2022/11/17 10:58:18;;;;;;;28.92;16.40;;;5.00;99.90;;;;;;4966855;28;20027;-40
2022/11/17 11:00:50;;;;;;;27.90;16.35;;;5.00;99.90;;;;;;4975932;28;20038;-40
2022/11/17 11:03:20;;;;;;;31.25;15.40;;;5.10;99.90;;;;;;4978241;28;20018;-40
2022/11/17 11:06:20;;;;;;;27.98;15.32;;;5.10;99.90;;;;;;4979711;28;20073;-41
2022/11/17 11:09:14;;;;;;;31.10;15.67;;;5.10;99.90;;;;;;4976118;28;20435;-40
2022/11/17 11:11:45;;;;;;;26.05;16.23;;;5.10;99.90;;;;;;4981761;28;20030;-40
2022/11/17 11:14:33;;;;;;;29.55;15.95;;;5.10;99.90;;;;;;4978516;28;20080;-40
2022/11/17 11:17:00;;;;;;;27.38;15.43;;;5.10;99.90;;;;;;4979486;28;20442;-39
2022/11/17 11:19:25;;;;;;;24.98;14.15;;;5.10;99.90;;;;;;4977947;28;20037;-40
2022/11/17 11:22:20;;;;;;;29.27;15.43;;;5.10;99.90;;;;;;4979826;28;20023;-40
2022/11/17 11:25:24;;;;;;;26.15;15.25;;;5.10;99.90;;;;;;4967870;28;20031;-40
2022/11/17 11:28:08;;;;;;;26.25;15.32;;;5.10;99.90;;;;;;4972944;28;20400;-40
2022/11/17 11:30:53;;;;;;;27.38;14.60;;;5.10;99.90;;;;;;4984374;28;20125;-39
2022/11/17 11:33:35;;;;;;;28.40;15.32;;;5.10;99.90;;;;;;4977236;28;20028;-39
2022/11/17 11:36:25;;;;;;;24.55;13.85;;;5.10;99.90;;;;;;4976582;28;20025;-39
2022/11/17 11:39:12;;;;;;;26.27;15.02;;;5.10;99.90;;;;;;4984931;28;20345;-39
2022/11/17 11:42:09;;;;;;;26.77;14.80;;;5.10;99.90;;;;;;4977049;28;20066;-39
2022/11/17 11:44:43;;;;;;;21.77;13.57;;;5.10;99.90;;;;;;4977315;28;20036;-39
2022/11/17 11:47:14;;;;;;;24.83;13.95;;;5.10;99.90;;;;;;4972341;28;20030;-39
2022/11/17 11:49:57;;;;;;;23.55;13.63;;;5.10;99.90;;;;;;4976529;28;20552;-40
2022/11/17 11:52:37;;;;;;;27.10;14.85;;;5.10;99.90;;;;;;4977011;28;20460;-40
2022/11/17 11:55:15;;;;;;;22.40;13.27;;;5.10;99.90;;;;;;4977586;28;20040;-40
2022/11/17 11:58:09;;;;;;;25.70;14.40;;;5.10;99.90;;;;;;4980727;28;20799;-40
2022/11/17 12:00:40;;;;;;;21.20;12.55;;;5.10;99.90;;;;;;4987199;28;20503;-41
2022/11/17 12:03:17;;;;;;;24.58;12.80;;;5.10;99.90;;;;;;4966420;28;20503;-40
2022/11/17 12:05:45;;;;;;;22.10;13.18;;;5.10;99.90;;;;;;4967209;28;20506;-41
2022/11/17 12:08:31;;;;;;;24.02;13.50;;;5.10;99.90;;;;;;4967756;28;20039;-40
2022/11/17 12:11:58;;;;;;;24.88;13.18;;;5.20;99.90;;;;;;4969246;28;20305;-41
2022/11/17 12:13:48;;;;;;;20.42;12.02;;;5.20;99.90;;;;;;4978101;28;20035;-40
2022/11/17 12:16:19;;;;;;;21.80;13.30;;;5.30;99.90;;;;;;4973942;28;20038;-40
2022/11/17 12:18:44;;;;;;;24.55;13.40;;;5.20;99.90;;;;;;4973741;28;20636;-40
2022/11/17 12:21:22;;;;;;;18.70;12.20;;;5.30;99.90;;;;;;4979644;28;20062;-40
2022/11/17 12:23:57;;;;;;;22.52;12.20;;;5.30;99.90;;;;;;4983720;28;20027;-40
2022/11/17 12:26:29;;;;;;;25.10;12.60;;;5.30;99.90;;;;;;4975339;28;20035;-40
2022/11/17 12:29:19;;;;;;;20.95;12.35;;;5.30;99.90;;;;;;4984862;28;20026;-40
2022/11/17 12:31:46;;;;;;;17.05;11.05;;;5.30;99.90;;;;;;4981699;28;20349;-42
2022/11/17 12:34:41;;;;;;;19.98;11.45;;;5.20;99.90;;;;;;4964475;28;20422;-40
2022/11/17 12:37:16;;;;;;;18.50;11.27;;;5.30;99.90;;;;;;4956701;28;20530;-41
2022/11/17 12:40:00;;;;;;;17.40;10.93;;;5.30;99.90;;;;;;4988506;28;20054;-41
2022/11/17 12:42:27;;;;;;;19.10;10.82;;;5.30;99.90;;;;;;4982722;28;20026;-41
2022/11/17 12:44:59;;;;;;;18.45;10.45;;;5.30;99.90;;;;;;4985483;28;20109;-40
2022/11/17 12:47:31;;;;;;;18.45;11.38;;;5.20;99.90;;;;;;4981461;28;20028;-40
2022/11/17 12:50:18;;;;;;;18.50;10.60;;;5.20;99.90;;;;;;4975620;28;20080;-40
2022/11/17 12:52:46;;;;;;;16.45;9.73;;;5.30;99.90;;;;;;4983434;28;20167;-40
2022/11/17 12:55:32;;;;;;;19.20;11.63;;;5.30;99.90;;;;;;4980122;28;20027;-40
2022/11/17 12:58:16;;;;;;;19.38;10.82;;;5.30;99.90;;;;;;4979169;28;20346;-40
2022/11/17 13:00:57;;;;;;;15.90;10.43;;;5.30;99.90;;;;;;4983990;28;20030;-40
2022/11/17 13:03:59;;;;;;;18.10;11.02;;;5.20;99.90;;;;;;4986595;28;20026;-40
2022/11/17 13:06:25;;;;;;;14.98;10.52;;;5.30;99.90;;;;;;4987444;28;20402;-40
2022/11/17 13:08:59;;;;;;;16.95;11.10;;;5.30;99.90;;;;;;4988015;28;20029;-40
2022/11/17 13:11:25;;;;;;;17.35;10.13;;;5.30;99.90;;;;;;4985012;28;20504;-41
2022/11/17 13:14:14;;;;;;;14.10;9.70;;;5.30;99.90;;;;;;4990791;28;20026;-41
2022/11/17 13:16:49;;;;;;;16.52;10.63;;;5.30;99.90;;;;;;5003000;28;20062;-41
2022/11/17 13:19:40;;;;;;;17.45;10.25;;;5.30;99.90;;;;;;4972082;28;20045;-41
2022/11/17 13:22:13;;;;;;;16.67;10.02;;;5.30;99.90;;;;;;4967186;28;20038;-39
2022/11/17 13:24:44;;;;;;;21.20;10.75;;;5.40;99.90;;;;;;4967837;28;20034;-39
2022/11/17 13:27:25;;;;;;;18.48;10.73;;;5.40;99.90;;;;;;4967196;28;20176;-39